sensor_id;sensor_type;location;lat;lon;timestamp;P1;durP1;ratioP1;P2;durP2;ratioP2
31716;SDS011;18301;51.076;17.046;2023-03-19T00:00:36;27.70;;;13.52;;
31716;SDS011;18301;51.076;17.046;2023-03-19T00:05:38;24.08;;;13.88;;
31716;SDS011;18301;51.076;17.046;2023-03-19T00:10:39;27.25;;;13.63;;
31716;SDS011;18301;51.076;17.046;2023-03-19T00:15:41;26.92;;;13.48;;
31716;SDS011;18301;51.076;17.046;2023-03-19T00:20:42;25.33;;;13.48;;
31716;SDS011;18301;51.076;17.046;2023-03-19T00:25:44;27.17;;;13.65;;
31716;SDS011;18301;51.076;17.046;2023-03-19T00:30:46;28.33;;;13.95;;
31716;SDS011;18301;51.076;17.046;2023-03-19T00:35:47;26.02;;;12.98;;
31716;SDS011;18301;51.076;17.046;2023-03-19T00:40:49;27.50;;;13.73;;
31716;SDS011;18301;51.076;17.046;2023-03-19T00:45:50;28.88;;;13.30;;
31716;SDS011;18301;51.076;17.046;2023-03-19T00:50:52;26.88;;;13.98;;
31716;SDS011;18301;51.076;17.046;2023-03-19T00:55:54;26.58;;;13.32;;
31716;SDS011;18301;51.076;17.046;2023-03-19T01:00:55;27.95;;;13.73;;
31716;SDS011;18301;51.076;17.046;2023-03-19T01:05:57;25.08;;;12.90;;
31716;SDS011;18301;51.076;17.046;2023-03-19T01:11:10;27.48;;;13.70;;
31716;SDS011;18301;51.076;17.046;2023-03-19T01:16:14;30.50;;;15.60;;
31716;SDS011;18301;51.076;17.046;2023-03-19T01:21:16;29.27;;;14.50;;
31716;SDS011;18301;51.076;17.046;2023-03-19T01:26:17;31.38;;;15.77;;
31716;SDS011;18301;51.076;17.046;2023-03-19T01:31:19;33.88;;;16.42;;
31716;SDS011;18301;51.076;17.046;2023-03-19T01:36:22;33.83;;;17.73;;
31716;SDS011;18301;51.076;17.046;2023-03-19T01:41:23;33.72;;;16.85;;
31716;SDS011;18301;51.076;17.046;2023-03-19T01:46:32;38.00;;;18.42;;
31716;SDS011;18301;51.076;17.046;2023-03-19T01:51:38;43.80;;;19.85;;
31716;SDS011;18301;51.076;17.046;2023-03-19T01:56:41;36.70;;;18.63;;
31716;SDS011;18301;51.076;17.046;2023-03-19T02:01:46;42.28;;;21.25;;
31716;SDS011;18301;51.076;17.046;2023-03-19T02:06:54;42.87;;;21.03;;
31716;SDS011;18301;51.076;17.046;2023-03-19T02:11:56;44.70;;;20.25;;
31716;SDS011;18301;51.076;17.046;2023-03-19T02:17:00;40.17;;;20.52;;
31716;SDS011;18301;51.076;17.046;2023-03-19T02:22:02;42.58;;;20.38;;
31716;SDS011;18301;51.076;17.046;2023-03-19T02:27:05;50.90;;;23.40;;
31716;SDS011;18301;51.076;17.046;2023-03-19T02:32:08;47.17;;;21.67;;
31716;SDS011;18301;51.076;17.046;2023-03-19T02:37:19;43.90;;;21.83;;
31716;SDS011;18301;51.076;17.046;2023-03-19T02:42:26;45.67;;;20.88;;
31716;SDS011;18301;51.076;17.046;2023-03-19T02:47:29;46.42;;;20.73;;
31716;SDS011;18301;51.076;17.046;2023-03-19T02:52:31;44.80;;;20.65;;
31716;SDS011;18301;51.076;17.046;2023-03-19T02:57:32;44.53;;;21.58;;
31716;SDS011;18301;51.076;17.046;2023-03-19T03:02:34;45.05;;;21.42;;
31716;SDS011;18301;51.076;17.046;2023-03-19T03:07:35;41.45;;;19.80;;
31716;SDS011;18301;51.076;17.046;2023-03-19T03:12:37;40.50;;;19.50;;
31716;SDS011;18301;51.076;17.046;2023-03-19T03:17:39;43.47;;;19.25;;
31716;SDS011;18301;51.076;17.046;2023-03-19T03:22:40;38.00;;;18.45;;
31716;SDS011;18301;51.076;17.046;2023-03-19T03:27:42;36.90;;;19.13;;
31716;SDS011;18301;51.076;17.046;2023-03-19T03:32:43;45.53;;;19.20;;
31716;SDS011;18301;51.076;17.046;2023-03-19T03:37:45;38.58;;;18.30;;
31716;SDS011;18301;51.076;17.046;2023-03-19T03:42:46;36.72;;;18.63;;
31716;SDS011;18301;51.076;17.046;2023-03-19T03:47:48;36.72;;;19.00;;
31716;SDS011;18301;51.076;17.046;2023-03-19T03:52:49;39.13;;;19.63;;
31716;SDS011;18301;51.076;17.046;2023-03-19T03:57:51;46.83;;;20.73;;
31716;SDS011;18301;51.076;17.046;2023-03-19T04:02:52;38.58;;;19.50;;
31716;SDS011;18301;51.076;17.046;2023-03-19T04:07:54;46.88;;;19.90;;
31716;SDS011;18301;51.076;17.046;2023-03-19T04:12:56;45.00;;;21.73;;
31716;SDS011;18301;51.076;17.046;2023-03-19T04:17:57;39.47;;;20.10;;
31716;SDS011;18301;51.076;17.046;2023-03-19T04:22:59;40.30;;;20.02;;
31716;SDS011;18301;51.076;17.046;2023-03-19T04:28:02;49.00;;;21.20;;
31716;SDS011;18301;51.076;17.046;2023-03-19T04:33:03;41.80;;;20.88;;
31716;SDS011;18301;51.076;17.046;2023-03-19T04:38:05;50.38;;;21.90;;
31716;SDS011;18301;51.076;17.046;2023-03-19T04:43:07;39.63;;;21.05;;
31716;SDS011;18301;51.076;17.046;2023-03-19T04:48:08;44.53;;;22.05;;
31716;SDS011;18301;51.076;17.046;2023-03-19T04:53:10;41.63;;;21.10;;
31716;SDS011;18301;51.076;17.046;2023-03-19T04:58:12;42.85;;;20.05;;
31716;SDS011;18301;51.076;17.046;2023-03-19T05:03:14;45.22;;;21.33;;
31716;SDS011;18301;51.076;17.046;2023-03-19T05:08:16;42.78;;;21.25;;
31716;SDS011;18301;51.076;17.046;2023-03-19T05:13:18;41.33;;;20.20;;
31716;SDS011;18301;51.076;17.046;2023-03-19T05:18:21;40.58;;;19.80;;
31716;SDS011;18301;51.076;17.046;2023-03-19T05:23:23;40.40;;;19.13;;
31716;SDS011;18301;51.076;17.046;2023-03-19T05:28:25;41.08;;;18.67;;
31716;SDS011;18301;51.076;17.046;2023-03-19T05:33:27;43.45;;;19.58;;
31716;SDS011;18301;51.076;17.046;2023-03-19T05:38:29;35.75;;;18.25;;
31716;SDS011;18301;51.076;17.046;2023-03-19T05:43:30;40.88;;;19.38;;
31716;SDS011;18301;51.076;17.046;2023-03-19T05:48:32;38.40;;;19.77;;
31716;SDS011;18301;51.076;17.046;2023-03-19T05:53:34;37.58;;;19.27;;
31716;SDS011;18301;51.076;17.046;2023-03-19T05:58:35;81.65;;;34.72;;
31716;SDS011;18301;51.076;17.046;2023-03-19T06:03:37;80.60;;;35.28;;
31716;SDS011;18301;51.076;17.046;2023-03-19T06:08:38;61.72;;;28.83;;
31716;SDS011;18301;51.076;17.046;2023-03-19T06:13:40;40.45;;;20.65;;
31716;SDS011;18301;51.076;17.046;2023-03-19T06:18:43;40.38;;;19.88;;
31716;SDS011;18301;51.076;17.046;2023-03-19T06:23:45;41.53;;;21.05;;
31716;SDS011;18301;51.076;17.046;2023-03-19T06:28:47;37.38;;;19.30;;
31716;SDS011;18301;51.076;17.046;2023-03-19T06:33:48;39.17;;;19.40;;
31716;SDS011;18301;51.076;17.046;2023-03-19T06:38:50;37.10;;;19.55;;
31716;SDS011;18301;51.076;17.046;2023-03-19T06:43:52;36.47;;;19.25;;
31716;SDS011;18301;51.076;17.046;2023-03-19T06:48:53;37.38;;;18.35;;
31716;SDS011;18301;51.076;17.046;2023-03-19T06:53:55;35.42;;;18.70;;
31716;SDS011;18301;51.076;17.046;2023-03-19T06:58:56;34.47;;;17.42;;
31716;SDS011;18301;51.076;17.046;2023-03-19T07:03:58;29.35;;;16.95;;
31716;SDS011;18301;51.076;17.046;2023-03-19T07:09:00;26.75;;;15.65;;
31716;SDS011;18301;51.076;17.046;2023-03-19T07:14:01;32.05;;;16.05;;
31716;SDS011;18301;51.076;17.046;2023-03-19T07:19:04;26.00;;;16.02;;
31716;SDS011;18301;51.076;17.046;2023-03-19T07:24:05;29.48;;;15.93;;
31716;SDS011;18301;51.076;17.046;2023-03-19T07:29:07;28.92;;;15.82;;
31716;SDS011;18301;51.076;17.046;2023-03-19T07:34:08;30.05;;;15.95;;
31716;SDS011;18301;51.076;17.046;2023-03-19T07:39:10;29.98;;;15.35;;
31716;SDS011;18301;51.076;17.046;2023-03-19T07:44:11;28.42;;;15.68;;
31716;SDS011;18301;51.076;17.046;2023-03-19T07:49:13;27.15;;;15.55;;
31716;SDS011;18301;51.076;17.046;2023-03-19T07:54:15;27.48;;;14.43;;
31716;SDS011;18301;51.076;17.046;2023-03-19T07:59:16;30.98;;;16.48;;
31716;SDS011;18301;51.076;17.046;2023-03-19T08:04:18;25.20;;;14.43;;
31716;SDS011;18301;51.076;17.046;2023-03-19T08:09:19;24.40;;;14.38;;
31716;SDS011;18301;51.076;17.046;2023-03-19T08:14:21;27.15;;;14.50;;
31716;SDS011;18301;51.076;17.046;2023-03-19T08:19:23;25.77;;;15.43;;
31716;SDS011;18301;51.076;17.046;2023-03-19T08:24:24;26.10;;;14.73;;
31716;SDS011;18301;51.076;17.046;2023-03-19T08:29:26;27.20;;;14.70;;
31716;SDS011;18301;51.076;17.046;2023-03-19T08:34:27;26.05;;;14.90;;
31716;SDS011;18301;51.076;17.046;2023-03-19T08:39:29;24.40;;;14.30;;
31716;SDS011;18301;51.076;17.046;2023-03-19T08:44:30;25.23;;;14.27;;
31716;SDS011;18301;51.076;17.046;2023-03-19T08:49:32;19.73;;;12.88;;
31716;SDS011;18301;51.076;17.046;2023-03-19T08:54:33;20.80;;;12.05;;
31716;SDS011;18301;51.076;17.046;2023-03-19T08:59:35;21.42;;;12.60;;
31716;SDS011;18301;51.076;17.046;2023-03-19T09:04:39;19.27;;;11.73;;
31716;SDS011;18301;51.076;17.046;2023-03-19T09:09:42;17.42;;;11.45;;
31716;SDS011;18301;51.076;17.046;2023-03-19T09:14:44;20.08;;;12.30;;
31716;SDS011;18301;51.076;17.046;2023-03-19T09:19:45;22.73;;;12.32;;
31716;SDS011;18301;51.076;17.046;2023-03-19T09:24:47;19.90;;;11.48;;
31716;SDS011;18301;51.076;17.046;2023-03-19T09:29:48;17.83;;;9.85;;
31716;SDS011;18301;51.076;17.046;2023-03-19T09:34:50;14.20;;;9.27;;
31716;SDS011;18301;51.076;17.046;2023-03-19T09:39:52;14.73;;;8.73;;
31716;SDS011;18301;51.076;17.046;2023-03-19T09:44:53;13.55;;;9.00;;
31716;SDS011;18301;51.076;17.046;2023-03-19T09:49:56;18.33;;;10.60;;
31716;SDS011;18301;51.076;17.046;2023-03-19T09:55:01;19.25;;;9.95;;
31716;SDS011;18301;51.076;17.046;2023-03-19T10:00:18;15.95;;;9.15;;
31716;SDS011;18301;51.076;17.046;2023-03-19T10:05:29;16.05;;;8.77;;
31716;SDS011;18301;51.076;17.046;2023-03-19T10:15:40;17.02;;;8.95;;
31716;SDS011;18301;51.076;17.046;2023-03-19T10:25:55;13.55;;;8.93;;
31716;SDS011;18301;51.076;17.046;2023-03-19T10:36:25;15.70;;;9.88;;
31716;SDS011;18301;51.076;17.046;2023-03-19T10:41:43;16.35;;;9.48;;
31716;SDS011;18301;51.076;17.046;2023-03-19T10:46:51;12.18;;;8.50;;
31716;SDS011;18301;51.076;17.046;2023-03-19T10:51:54;15.70;;;8.95;;
31716;SDS011;18301;51.076;17.046;2023-03-19T10:56:57;14.48;;;9.25;;
31716;SDS011;18301;51.076;17.046;2023-03-19T11:02:01;14.13;;;8.75;;
31716;SDS011;18301;51.076;17.046;2023-03-19T11:07:18;20.10;;;10.50;;
31716;SDS011;18301;51.076;17.046;2023-03-19T11:12:23;15.20;;;8.80;;
31716;SDS011;18301;51.076;17.046;2023-03-19T11:17:37;14.55;;;9.30;;
31716;SDS011;18301;51.076;17.046;2023-03-19T11:22:47;13.57;;;8.90;;
31716;SDS011;18301;51.076;17.046;2023-03-19T11:28:00;13.73;;;9.27;;
31716;SDS011;18301;51.076;17.046;2023-03-19T11:33:29;15.13;;;9.60;;
31716;SDS011;18301;51.076;17.046;2023-03-19T11:44:25;15.55;;;10.70;;
31716;SDS011;18301;51.076;17.046;2023-03-19T12:00:18;17.77;;;11.43;;
31716;SDS011;18301;51.076;17.046;2023-03-19T12:05:30;20.30;;;12.27;;
31716;SDS011;18301;51.076;17.046;2023-03-19T12:21:14;16.90;;;10.98;;
31716;SDS011;18301;51.076;17.046;2023-03-19T12:26:38;15.82;;;10.35;;
31716;SDS011;18301;51.076;17.046;2023-03-19T12:42:18;19.42;;;12.00;;
31716;SDS011;18301;51.076;17.046;2023-03-19T12:47:24;17.80;;;11.25;;
31716;SDS011;18301;51.076;17.046;2023-03-19T12:52:34;17.40;;;10.45;;
31716;SDS011;18301;51.076;17.046;2023-03-19T13:03:06;18.33;;;11.48;;
31716;SDS011;18301;51.076;17.046;2023-03-19T13:08:21;17.38;;;11.10;;
31716;SDS011;18301;51.076;17.046;2023-03-19T13:18:36;15.80;;;10.27;;
31716;SDS011;18301;51.076;17.046;2023-03-19T13:23:47;17.85;;;9.90;;
31716;SDS011;18301;51.076;17.046;2023-03-19T13:28:58;14.25;;;9.43;;
31716;SDS011;18301;51.076;17.046;2023-03-19T13:34:03;15.93;;;10.52;;
31716;SDS011;18301;51.076;17.046;2023-03-19T13:39:12;15.82;;;10.27;;
31716;SDS011;18301;51.076;17.046;2023-03-19T13:44:32;16.20;;;10.13;;
31716;SDS011;18301;51.076;17.046;2023-03-19T13:49:44;14.80;;;9.77;;
31716;SDS011;18301;51.076;17.046;2023-03-19T14:05:59;14.75;;;9.38;;
31716;SDS011;18301;51.076;17.046;2023-03-19T14:11:01;15.75;;;8.80;;
31716;SDS011;18301;51.076;17.046;2023-03-19T14:21:20;14.40;;;9.40;;
31716;SDS011;18301;51.076;17.046;2023-03-19T14:26:56;14.32;;;8.65;;
31716;SDS011;18301;51.076;17.046;2023-03-19T14:32:05;13.77;;;8.82;;
31716;SDS011;18301;51.076;17.046;2023-03-19T14:53:24;14.20;;;8.35;;
31716;SDS011;18301;51.076;17.046;2023-03-19T14:58:46;12.20;;;6.97;;
31716;SDS011;18301;51.076;17.046;2023-03-19T15:03:55;13.00;;;8.52;;
31716;SDS011;18301;51.076;17.046;2023-03-19T15:09:00;12.73;;;7.65;;
31716;SDS011;18301;51.076;17.046;2023-03-19T15:14:05;16.45;;;8.60;;
31716;SDS011;18301;51.076;17.046;2023-03-19T15:19:21;12.43;;;7.78;;
31716;SDS011;18301;51.076;17.046;2023-03-19T15:24:27;19.30;;;11.38;;
31716;SDS011;18301;51.076;17.046;2023-03-19T15:29:32;20.33;;;11.32;;
31716;SDS011;18301;51.076;17.046;2023-03-19T15:34:38;19.92;;;12.23;;
31716;SDS011;18301;51.076;17.046;2023-03-19T15:39:44;17.63;;;11.10;;
31716;SDS011;18301;51.076;17.046;2023-03-19T15:50:09;16.75;;;10.20;;
31716;SDS011;18301;51.076;17.046;2023-03-19T15:55:14;18.42;;;11.40;;
31716;SDS011;18301;51.076;17.046;2023-03-19T16:00:17;21.80;;;11.88;;
31716;SDS011;18301;51.076;17.046;2023-03-19T16:05:26;19.08;;;12.95;;
31716;SDS011;18301;51.076;17.046;2023-03-19T16:10:34;24.95;;;13.80;;
31716;SDS011;18301;51.076;17.046;2023-03-19T16:15:39;27.27;;;15.32;;
31716;SDS011;18301;51.076;17.046;2023-03-19T16:20:44;29.08;;;16.10;;
31716;SDS011;18301;51.076;17.046;2023-03-19T16:26:16;26.45;;;15.05;;
31716;SDS011;18301;51.076;17.046;2023-03-19T16:31:25;30.67;;;17.70;;
31716;SDS011;18301;51.076;17.046;2023-03-19T16:36:30;32.88;;;19.38;;
31716;SDS011;18301;51.076;17.046;2023-03-19T16:41:33;32.05;;;19.52;;
31716;SDS011;18301;51.076;17.046;2023-03-19T16:46:36;30.80;;;17.33;;
31716;SDS011;18301;51.076;17.046;2023-03-19T16:51:37;27.13;;;17.60;;
31716;SDS011;18301;51.076;17.046;2023-03-19T16:56:39;27.15;;;16.58;;
31716;SDS011;18301;51.076;17.046;2023-03-19T17:01:41;27.27;;;15.35;;
31716;SDS011;18301;51.076;17.046;2023-03-19T17:06:42;28.52;;;16.73;;
31716;SDS011;18301;51.076;17.046;2023-03-19T17:11:44;29.95;;;16.58;;
31716;SDS011;18301;51.076;17.046;2023-03-19T17:16:45;29.15;;;17.45;;
31716;SDS011;18301;51.076;17.046;2023-03-19T17:21:54;29.10;;;16.05;;
31716;SDS011;18301;51.076;17.046;2023-03-19T17:26:59;28.90;;;16.27;;
31716;SDS011;18301;51.076;17.046;2023-03-19T17:32:02;32.28;;;18.27;;
31716;SDS011;18301;51.076;17.046;2023-03-19T17:37:09;30.95;;;18.42;;
31716;SDS011;18301;51.076;17.046;2023-03-19T17:42:17;31.17;;;18.92;;
31716;SDS011;18301;51.076;17.046;2023-03-19T17:47:22;37.10;;;19.13;;
31716;SDS011;18301;51.076;17.046;2023-03-19T17:52:23;32.33;;;19.02;;
31716;SDS011;18301;51.076;17.046;2023-03-19T17:57:24;37.15;;;20.30;;
31716;SDS011;18301;51.076;17.046;2023-03-19T18:02:27;32.60;;;19.15;;
31716;SDS011;18301;51.076;17.046;2023-03-19T18:07:32;34.38;;;19.80;;
31716;SDS011;18301;51.076;17.046;2023-03-19T18:12:33;33.17;;;20.48;;
31716;SDS011;18301;51.076;17.046;2023-03-19T18:17:35;51.53;;;25.92;;
31716;SDS011;18301;51.076;17.046;2023-03-19T18:22:36;57.65;;;28.88;;
31716;SDS011;18301;51.076;17.046;2023-03-19T18:27:38;59.67;;;30.88;;
31716;SDS011;18301;51.076;17.046;2023-03-19T18:32:40;56.20;;;28.52;;
31716;SDS011;18301;51.076;17.046;2023-03-19T18:37:46;54.75;;;29.98;;
31716;SDS011;18301;51.076;17.046;2023-03-19T18:42:49;59.47;;;31.67;;
31716;SDS011;18301;51.076;17.046;2023-03-19T18:47:51;67.78;;;33.40;;
31716;SDS011;18301;51.076;17.046;2023-03-19T18:52:52;62.90;;;32.42;;
31716;SDS011;18301;51.076;17.046;2023-03-19T18:57:56;63.83;;;34.60;;
31716;SDS011;18301;51.076;17.046;2023-03-19T19:02:59;68.70;;;33.95;;
31716;SDS011;18301;51.076;17.046;2023-03-19T19:08:02;74.05;;;36.88;;
31716;SDS011;18301;51.076;17.046;2023-03-19T19:13:05;83.50;;;40.75;;
31716;SDS011;18301;51.076;17.046;2023-03-19T19:18:14;110.47;;;53.83;;
31716;SDS011;18301;51.076;17.046;2023-03-19T19:23:21;92.82;;;42.70;;
31716;SDS011;18301;51.076;17.046;2023-03-19T19:28:28;87.32;;;43.17;;
31716;SDS011;18301;51.076;17.046;2023-03-19T19:33:41;81.82;;;39.63;;
31716;SDS011;18301;51.076;17.046;2023-03-19T19:38:42;81.82;;;41.00;;
31716;SDS011;18301;51.076;17.046;2023-03-19T19:43:44;71.63;;;35.55;;
31716;SDS011;18301;51.076;17.046;2023-03-19T19:48:49;60.80;;;32.75;;
31716;SDS011;18301;51.076;17.046;2023-03-19T19:53:51;59.22;;;31.30;;
31716;SDS011;18301;51.076;17.046;2023-03-19T19:58:53;57.95;;;29.75;;
31716;SDS011;18301;51.076;17.046;2023-03-19T20:03:55;55.78;;;29.67;;
31716;SDS011;18301;51.076;17.046;2023-03-19T20:08:57;54.33;;;30.80;;
31716;SDS011;18301;51.076;17.046;2023-03-19T20:13:58;57.78;;;29.63;;
31716;SDS011;18301;51.076;17.046;2023-03-19T20:19:00;53.13;;;27.90;;
31716;SDS011;18301;51.076;17.046;2023-03-19T20:24:01;57.67;;;29.08;;
31716;SDS011;18301;51.076;17.046;2023-03-19T20:29:03;46.63;;;25.67;;
31716;SDS011;18301;51.076;17.046;2023-03-19T20:34:04;49.50;;;24.67;;
31716;SDS011;18301;51.076;17.046;2023-03-19T20:39:06;48.08;;;24.00;;
31716;SDS011;18301;51.076;17.046;2023-03-19T20:44:08;44.47;;;23.90;;
31716;SDS011;18301;51.076;17.046;2023-03-19T20:49:18;44.08;;;23.75;;
31716;SDS011;18301;51.076;17.046;2023-03-19T20:54:20;45.22;;;25.10;;
31716;SDS011;18301;51.076;17.046;2023-03-19T20:59:23;47.05;;;25.92;;
31716;SDS011;18301;51.076;17.046;2023-03-19T21:04:26;48.03;;;25.98;;
31716;SDS011;18301;51.076;17.046;2023-03-19T21:09:27;45.50;;;25.67;;
31716;SDS011;18301;51.076;17.046;2023-03-19T21:14:29;49.92;;;26.15;;
31716;SDS011;18301;51.076;17.046;2023-03-19T21:19:30;49.33;;;25.88;;
31716;SDS011;18301;51.076;17.046;2023-03-19T21:24:32;48.70;;;27.13;;
31716;SDS011;18301;51.076;17.046;2023-03-19T21:29:33;52.17;;;27.70;;
31716;SDS011;18301;51.076;17.046;2023-03-19T21:34:35;47.92;;;27.02;;
31716;SDS011;18301;51.076;17.046;2023-03-19T21:39:37;52.22;;;29.20;;
31716;SDS011;18301;51.076;17.046;2023-03-19T21:44:38;53.28;;;29.35;;
31716;SDS011;18301;51.076;17.046;2023-03-19T21:49:40;57.25;;;30.38;;
31716;SDS011;18301;51.076;17.046;2023-03-19T21:54:42;58.78;;;30.52;;
31716;SDS011;18301;51.076;17.046;2023-03-19T21:59:44;54.17;;;30.60;;
31716;SDS011;18301;51.076;17.046;2023-03-19T22:04:45;54.67;;;28.98;;
31716;SDS011;18301;51.076;17.046;2023-03-19T22:09:46;59.22;;;30.98;;
31716;SDS011;18301;51.076;17.046;2023-03-19T22:14:48;60.97;;;32.35;;
31716;SDS011;18301;51.076;17.046;2023-03-19T22:19:49;57.42;;;31.17;;
31716;SDS011;18301;51.076;17.046;2023-03-19T22:24:51;56.58;;;31.65;;
31716;SDS011;18301;51.076;17.046;2023-03-19T22:29:53;56.72;;;30.58;;
31716;SDS011;18301;51.076;17.046;2023-03-19T22:34:54;56.40;;;31.13;;
31716;SDS011;18301;51.076;17.046;2023-03-19T22:39:56;62.60;;;32.70;;
31716;SDS011;18301;51.076;17.046;2023-03-19T22:44:57;56.75;;;30.88;;
31716;SDS011;18301;51.076;17.046;2023-03-19T22:49:59;55.88;;;30.58;;
31716;SDS011;18301;51.076;17.046;2023-03-19T22:55:00;56.65;;;30.67;;
31716;SDS011;18301;51.076;17.046;2023-03-19T23:00:02;57.28;;;31.52;;
31716;SDS011;18301;51.076;17.046;2023-03-19T23:10:28;60.55;;;32.88;;
31716;SDS011;18301;51.076;17.046;2023-03-19T23:15:31;57.83;;;33.08;;
31716;SDS011;18301;51.076;17.046;2023-03-19T23:20:33;60.03;;;32.28;;
31716;SDS011;18301;51.076;17.046;2023-03-19T23:25:34;61.10;;;34.88;;
31716;SDS011;18301;51.076;17.046;2023-03-19T23:30:36;57.88;;;32.90;;
31716;SDS011;18301;51.076;17.046;2023-03-19T23:35:41;61.65;;;34.00;;
31716;SDS011;18301;51.076;17.046;2023-03-19T23:40:43;63.63;;;34.50;;
31716;SDS011;18301;51.076;17.046;2023-03-19T23:45:46;62.40;;;35.38;;
31716;SDS011;18301;51.076;17.046;2023-03-19T23:50:50;66.78;;;35.55;;
31716;SDS011;18301;51.076;17.046;2023-03-19T23:55:54;64.88;;;35.35;;
